Airfield :
LOGIN :

Register | Disclaimer

   EN    FR    IT 

 










Legend :    VFR   Marginal VFR   IFR   Intensive IFR   Very Intensive IFR
Visi :
Ceiling :
>= 8 km
>= 3000ft
5 to 8 km
1000 to 3000 ft
1500m to 5 km
500 to 1000 ft
800 to 1500m
200 to 500 ft
< 800m
< 200 ft
Symbols :   Thunderstorms  Fog  Heavy snow  Heavy precipitations  Wind > 20 kt
SIGMETs :     Misc.  Thunderstorms  Icing  Turbulence  Mountain Waves  Volcanic Ashes







- Airport Elevation : 3 ft
- IATA code : DHR


EHKD - Den Helder De Kooy

CURRENT METAR :
  • 250955Z AUTO 27013KT 240V300 9999 SCT008 BKN009 OVC011 10/08 Q1010 GRN 28012KT 9999 SCT008 BKN012 BECMG SCT012 BKN040

EXPIRED METARs :
  • 250925Z AUTO 28012KT 240V320 9999 SCT008 BKN009 OVC010 10/08 Q1009 GRN 28012KT 9999 SCT008 BKN012 BECMG SCT012 BKN040
  • 250858Z AUTO 29012KT 260V330 9999 SCT008 BKN009 BKN010 10/08 Q1009 GRN 28012KT 9999 SCT008 BKN012 BECMG SCT012 BKN040
  • 250855Z AUTO 28012KT 240V320 9999 FEW007 BKN008 BKN010 10/08 Q1009 GRN 28012KT 9999 FEW005 SCT007 BKN009 BECMG SCT008 BKN012
  • 250837Z AUTO 28010KT 240V320 9999 FEW006 SCT007 BKN008 09/08 Q1009 GRN 28012KT 9999 FEW005 SCT007 BKN009 BECMG SCT008 BKN012
  • 250825Z AUTO 28013KT 250V320 9999 FEW004 BKN005 BKN007 09/08 Q1009 REDZ YLO 28015G25KT 9999 SCT005 BKN009 TEMPO 4000 -SHRA SCT015CB
  • 250800Z AUTO 29013KT 260V320 9999 SCT006 BKN007 OVC009 09/08 Q1008 YLO 28015G25KT 9999 SCT005 BKN009 TEMPO 3000 -SHRA SCT015CB
  • 250755Z AUTO 29012KT 250V340 9999 SCT007 BKN008 BKN016 09/08 Q1008 GRN 27015G25KT 9999 FEW007 BKN040 TEMPO BKN007
  • 250748Z AUTO 29012KT 260V340 9999 FEW007 SCT009 OVC027 09/08 Q1008 GRN 27015G25KT 9999 FEW007 BKN040 TEMPO BKN007
  • 250740Z AUTO 28013KT 250V320 9999 FEW008 SCT015 OVC030 09/07 Q1008 WHT 27015G25KT 9999 FEW007 BKN040 TEMPO BKN007
  • 250725Z AUTO 28012KT 250V310 9999 FEW007 SCT009 BKN010 09/08 Q1008 GRN 27015G25KT 9999 FEW007 BKN040 TEMPO BKN007

TAF TAF EHKD
Valid from the 25 at 09:00 until the 25 at 21:00 UTC


250810Z 2509/2521 29012G22KT 9999 SCT005 SCT012 BKN015
BECMG 2510/2513 25012G22KT SCT018 SCT025
PROB30
TEMPO 2510/2521 SCT015CB BKN020
No reported NOTAMs for that airfield.



MET'MAP, your aeronautical weather chart ! - Copyright ORBIFLY December 2007 - Disclaimer

ORBIFLY MET'MAP TEAM :

Programming & Development : Alexandra Zaïnal
Concept & Development : Baudouin d'Aumeries
Co-Development & Prog : Marc-Olivier Méhu
Technical & hardware support : Manuel Goepfert

Contact : metmap@orbifly.com




SOURCES & CREDITS :

   NOAA